Weather at Jabbour Airfield

Public forecast

Using degrees Celsius for public forecast. Weather courtesy of forecast.io.

Closest aviation weather report (METAR) to Jabbour Airfield

Report is more than 2 hours old.

Closest report is Beirut Rafic Hariri International Airport, 21.7 nm (40.2 km) NNW.

2024/05/30 15:00 (retrieved 4 hours ago)

OLBA 301500Z 25007KT 8000 SCT026 24/17 Q1015 NOSIG

Closest aviation forecast (TAF) to Jabbour Airfield

Forecast is more than 6 hours old.

Closest forecast is Beirut Rafic Hariri International Airport, 21.7 nm (40.2 km) NNW.

2024/05/30 12:01 (retrieved 7 hours ago)

TAF OLBA 301000Z 3012/3118 26005KT 9999 FEW026 BECMG 3100/3103 19005KT TEMPO 3018/3106 5000 BR BECMG 3106/3109 26005KT 8000 BECMG 3115/3118 01005KT